Time;durP1;ratioP1;P1;durP2;ratioP2;P2;SDS_P1;SDS_P2;PMS_P1;PMS_P2;Temp;Humidity;BMP_temperature;BMP_pressure;BME280_temperature;BME280_humidity;BME280_pressure;Samples;Min_cycle;Max_cycle;Signal;HPM_P1;HPM_P2
2023/03/20 00:00:09;;;;;;;22.60;11.60;;;14.50;54.70;;;;;;5062970;28;20440;-85
2023/03/20 00:02:37;;;;;;;13.30;8.37;;;14.40;54.80;;;;;;5072443;28;20834;-86
2023/03/20 00:05:17;;;;;;;11.30;7.10;;;14.40;54.80;;;;;;5070778;28;20474;-86
2023/03/20 00:07:44;;;;;;;8.27;6.73;;;14.40;54.80;;;;;;5026639;28;20956;-88
2023/03/20 00:10:11;;;;;;;11.77;7.73;;;14.40;54.50;;;;;;5053553;28;20510;-86
2023/03/20 00:12:39;;;;;;;12.07;8.30;;;14.40;54.40;;;;;;5037445;28;20975;-86
2023/03/20 00:15:14;;;;;;;8.73;6.60;;;14.30;54.90;;;;;;5036750;28;20506;-85
2023/03/20 00:17:42;;;;;;;11.47;8.03;;;14.30;55.20;;;;;;5039212;28;20813;-84
2023/03/20 00:20:14;;;;;;;12.07;9.10;;;14.30;55.30;;;;;;5034415;28;20542;-86
2023/03/20 00:22:41;;;;;;;11.23;7.53;;;14.40;55.70;;;;;;5055773;28;20456;-86
2023/03/20 00:25:13;;;;;;;8.53;7.43;;;14.40;55.10;;;;;;5069046;28;20479;-87
2023/03/20 00:27:40;;;;;;;12.30;8.60;;;14.40;55.10;;;;;;5061440;28;20448;-85
2023/03/20 00:30:18;;;;;;;13.60;8.67;;;14.40;54.90;;;;;;5028286;28;20456;-86
2023/03/20 00:32:47;;;;;;;13.13;8.43;;;14.30;54.70;;;;;;5027453;28;20545;-87
2023/03/20 00:35:18;;;;;;;9.90;8.23;;;14.30;54.80;;;;;;5051153;28;20940;-87
2023/03/20 00:37:47;;;;;;;12.23;7.47;;;14.30;54.60;;;;;;5037590;28;20449;-85
2023/03/20 00:40:14;;;;;;;8.60;6.90;;;14.30;54.60;;;;;;5027030;28;20455;-87
2023/03/20 00:42:43;;;;;;;14.87;7.20;;;14.10;55.80;;;;;;5035317;28;20461;-83
2023/03/20 00:45:14;;;;;;;8.50;6.57;;;14.10;55.30;;;;;;5060003;28;20468;-85
2023/03/20 00:47:42;;;;;;;11.37;7.50;;;14.10;54.60;;;;;;5037894;28;20455;-85
2023/03/20 00:50:17;;;;;;;11.67;8.23;;;14.00;54.00;;;;;;5028075;28;20449;-88
2023/03/20 00:52:44;;;;;;;12.30;8.30;;;13.70;54.60;;;;;;5038526;28;20455;-87
2023/03/20 00:55:12;;;;;;;11.33;7.87;;;13.70;55.20;;;;;;5037095;28;20452;-87
2023/03/20 00:57:43;;;;;;;11.10;8.80;;;13.60;55.50;;;;;;5043363;28;20450;-86
2023/03/20 01:00:23;;;;;;;11.30;8.50;;;13.70;55.60;;;;;;5038153;28;21054;-85
2023/03/20 01:02:51;;;;;;;8.73;6.93;;;13.70;55.30;;;;;;5043471;28;20509;-86
2023/03/20 01:05:20;;;;;;;7.27;5.60;;;13.40;56.10;;;;;;5037558;28;20961;-85
2023/03/20 01:07:48;;;;;;;7.30;6.00;;;12.90;57.60;;;;;;5053234;28;21496;-86
2023/03/20 01:10:15;;;;;;;8.00;6.13;;;12.80;58.30;;;;;;5036964;28;20455;-87
2023/03/20 01:12:43;;;;;;;8.70;6.60;;;12.80;58.00;;;;;;5037033;28;20512;-85
2023/03/20 01:15:21;;;;;;;11.17;6.50;;;13.00;57.10;;;;;;5051320;28;20465;-85
2023/03/20 01:17:49;;;;;;;6.80;5.77;;;13.10;57.40;;;;;;5039237;28;20769;-87
2023/03/20 01:20:19;;;;;;;8.47;6.10;;;13.20;56.80;;;;;;5053999;28;20567;-84
2023/03/20 01:22:47;;;;;;;6.70;5.97;;;13.20;57.10;;;;;;5042555;28;21055;-87
2023/03/20 01:25:15;;;;;;;8.73;5.90;;;13.40;56.40;;;;;;5040374;28;20475;-87
2023/03/20 01:27:44;;;;;;;8.57;6.40;;;13.50;56.00;;;;;;5036878;28;20968;-86
2023/03/20 01:30:21;;;;;;;10.20;7.53;;;13.40;56.10;;;;;;5036002;28;20437;-86
2023/03/20 01:32:49;;;;;;;8.43;6.77;;;13.40;57.30;;;;;;5043543;28;20464;-87
2023/03/20 01:35:18;;;;;;;11.10;7.50;;;13.20;58.00;;;;;;5038297;28;20989;-86
2023/03/20 01:37:48;;;;;;;8.90;7.20;;;13.40;58.10;;;;;;5039895;28;20473;-85
2023/03/20 01:40:32;;;;;;;10.70;7.47;;;13.50;57.10;;;;;;5018493;28;20545;-87
2023/03/20 01:43:02;;;;;;;8.30;6.87;;;13.60;56.80;;;;;;5058541;28;20726;-87
2023/03/20 01:45:33;;;;;;;9.53;8.20;;;13.60;56.50;;;;;;5054542;28;20904;-86
2023/03/20 01:48:12;;;;;;;11.77;8.40;;;13.50;57.30;;;;;;5026170;28;20554;-86
2023/03/20 01:50:40;;;;;;;11.20;8.27;;;13.40;57.60;;;;;;5037516;28;20460;-87
2023/03/20 01:53:17;;;;;;;9.77;8.23;;;13.40;57.90;;;;;;5045853;28;20448;-86
2023/03/20 01:55:52;;;;;;;14.03;8.40;;;13.40;57.90;;;;;;5040051;28;20459;-87
2023/03/20 01:58:24;;;;;;;9.50;7.53;;;13.40;57.80;;;;;;5037454;28;20972;-86
2023/03/20 02:00:52;;;;;;;10.00;8.10;;;13.50;57.60;;;;;;5026937;28;20527;-85
2023/03/20 02:03:21;;;;;;;12.23;7.70;;;13.60;57.40;;;;;;5037333;28;20535;-86
2023/03/20 02:06:09;;;;;;;9.43;6.70;;;13.50;57.70;;;;;;5013604;28;20994;-85
2023/03/20 02:08:58;;;;;;;10.67;7.33;;;13.50;57.80;;;;;;5037153;28;20972;-86
2023/03/20 02:11:29;;;;;;;9.73;6.93;;;13.60;57.40;;;;;;5039291;28;20531;-86
2023/03/20 02:13:58;;;;;;;11.53;7.30;;;13.60;57.50;;;;;;5032900;28;20461;-87
2023/03/20 02:16:29;;;;;;;9.03;7.03;;;13.60;57.80;;;;;;5050140;28;21210;-87
2023/03/20 02:19:15;;;;;;;8.70;7.20;;;13.40;58.40;;;;;;5026318;28;20475;-85
2023/03/20 02:22:15;;;;;;;10.33;7.17;;;13.30;58.90;;;;;;5029620;28;20835;-86
2023/03/20 02:25:21;;;;;;;7.23;6.53;;;13.30;58.70;;;;;;5052497;28;20476;-87
2023/03/20 02:28:21;;;;;;;9.17;7.30;;;13.20;58.80;;;;;;5052717;28;20992;-85
2023/03/20 02:31:05;;;;;;;10.40;7.10;;;13.20;58.80;;;;;;5024287;28;20444;-86
2023/03/20 02:34:02;;;;;;;11.37;8.00;;;13.30;59.20;;;;;;5036610;28;20960;-86
2023/03/20 02:37:02;;;;;;;8.27;6.37;;;13.40;58.30;;;;;;5043422;28;20459;-86
2023/03/20 02:39:58;;;;;;;7.90;6.57;;;13.50;58.10;;;;;;5034361;28;20456;-87
2023/03/20 02:42:35;;;;;;;7.97;6.40;;;13.60;57.80;;;;;;5009769;28;20487;-85
2023/03/20 02:45:13;;;;;;;6.90;6.20;;;13.60;58.00;;;;;;5051450;28;20479;-86
2023/03/20 02:47:47;;;;;;;12.20;7.30;;;13.70;57.80;;;;;;5052166;28;20830;-86
2023/03/20 02:50:25;;;;;;;9.97;7.77;;;13.70;57.60;;;;;;5057613;28;20525;-87
2023/03/20 02:53:01;;;;;;;10.60;8.17;;;13.50;57.90;;;;;;5050792;28;20454;-87
2023/03/20 02:55:38;;;;;;;12.37;7.60;;;13.60;57.70;;;;;;5024491;28;20528;-87
2023/03/20 02:58:12;;;;;;;11.00;7.80;;;13.50;57.70;;;;;;5034696;28;20937;-86
2023/03/20 03:00:46;;;;;;;10.30;7.70;;;13.60;57.40;;;;;;5057674;28;20540;-87
2023/03/20 03:03:16;;;;;;;8.97;7.07;;;13.40;57.90;;;;;;5024622;28;20978;-85
2023/03/20 03:05:49;;;;;;;14.07;7.93;;;13.40;58.00;;;;;;5038684;28;20511;-87
2023/03/20 03:08:21;;;;;;;7.83;6.60;;;13.50;57.60;;;;;;5055518;28;20436;-87
2023/03/20 03:10:54;;;;;;;7.47;6.77;;;13.40;58.10;;;;;;5039230;28;20973;-87
2023/03/20 03:13:27;;;;;;;9.50;7.90;;;13.60;58.00;;;;;;5045819;28;20806;-87
2023/03/20 03:16:01;;;;;;;8.03;7.23;;;13.50;58.50;;;;;;5055469;28;20583;-86
2023/03/20 03:18:31;;;;;;;9.63;6.80;;;13.60;58.20;;;;;;5030313;28;20471;-86
2023/03/20 03:21:00;;;;;;;7.80;6.33;;;13.60;58.00;;;;;;5069211;28;20460;-87
2023/03/20 03:23:31;;;;;;;12.80;7.10;;;13.70;57.90;;;;;;5030397;28;20468;-87
2023/03/20 03:26:04;;;;;;;8.33;6.73;;;13.80;57.70;;;;;;5056158;28;20824;-87
2023/03/20 03:28:36;;;;;;;9.57;6.70;;;13.70;57.80;;;;;;5025128;28;21019;-85
2023/03/20 03:31:06;;;;;;;8.63;6.77;;;13.70;58.10;;;;;;5038866;28;20452;-85
2023/03/20 03:33:37;;;;;;;10.10;6.97;;;13.80;57.90;;;;;;5028904;28;20451;-86
2023/03/20 03:36:13;;;;;;;10.47;6.13;;;13.80;57.60;;;;;;5038627;28;20503;-87
2023/03/20 03:38:48;;;;;;;9.60;7.30;;;13.70;58.20;;;;;;5046037;28;20461;-88
2023/03/20 03:41:25;;;;;;;8.50;6.10;;;13.70;58.20;;;;;;5029758;28;20532;-86
2023/03/20 03:44:01;;;;;;;14.07;8.47;;;13.70;58.40;;;;;;5045000;28;20447;-87
2023/03/20 03:46:37;;;;;;;10.33;7.90;;;13.60;58.30;;;;;;5061284;28;20511;-86
2023/03/20 03:49:07;;;;;;;14.93;8.30;;;13.70;58.30;;;;;;5044494;28;20463;-85
2023/03/20 03:51:38;;;;;;;13.53;8.23;;;13.70;58.10;;;;;;5061075;28;20463;-85
2023/03/20 03:54:13;;;;;;;19.73;8.90;;;13.60;58.40;;;;;;5035123;28;20895;-85
2023/03/20 03:56:44;;;;;;;11.73;7.60;;;13.60;58.50;;;;;;5029500;28;20436;-86
2023/03/20 03:59:16;;;;;;;13.50;8.33;;;13.60;58.60;;;;;;5026232;28;20456;-86
2023/03/20 04:01:46;;;;;;;9.97;6.73;;;13.60;58.70;;;;;;5061612;28;21148;-87
2023/03/20 04:04:16;;;;;;;9.80;6.60;;;13.70;58.70;;;;;;5036145;28;20456;-86
2023/03/20 04:06:43;;;;;;;7.30;6.60;;;13.70;58.50;;;;;;5055470;28;20469;-86
2023/03/20 04:09:10;;;;;;;8.63;7.20;;;13.80;58.20;;;;;;5034953;28;20467;-86
2023/03/20 04:11:37;;;;;;;8.40;6.27;;;13.80;58.20;;;;;;5048514;28;20453;-87
2023/03/20 04:14:05;;;;;;;7.67;5.80;;;13.80;58.00;;;;;;5050875;28;20760;-84
2023/03/20 04:16:32;;;;;;;8.97;6.03;;;13.90;58.10;;;;;;5022729;28;20550;-86
2023/03/20 04:18:59;;;;;;;7.53;6.30;;;13.90;57.90;;;;;;5055876;28;20476;-86
2023/03/20 04:21:26;;;;;;;5.90;5.37;;;14.00;57.90;;;;;;5025251;28;21032;-85
2023/03/20 04:23:53;;;;;;;5.77;4.93;;;13.90;57.90;;;;;;5055149;28;20836;-86
2023/03/20 04:26:22;;;;;;;10.80;6.17;;;13.90;57.90;;;;;;5026001;28;20476;-87
2023/03/20 04:28:50;;;;;;;7.00;6.10;;;13.90;58.30;;;;;;5043506;28;20459;-86
2023/03/20 04:31:42;;;;;;;8.20;5.90;;;13.90;58.10;;;;;;5039691;28;20479;-87
2023/03/20 04:34:29;;;;;;;6.63;5.70;;;13.90;58.50;;;;;;5040747;28;20477;-84
2023/03/20 04:37:14;;;;;;;86.33;47.27;;;13.60;59.40;;;;;;5057698;28;22353;-86
2023/03/20 04:39:59;;;;;;;82.97;46.27;;;13.60;59.30;;;;;;5043501;28;20481;-85
2023/03/20 04:42:26;;;;;;;36.13;18.70;;;13.80;58.90;;;;;;5036976;28;20840;-86
2023/03/20 04:44:58;;;;;;;21.60;14.80;;;13.80;58.80;;;;;;5042698;28;20487;-86
2023/03/20 04:47:27;;;;;;;19.30;11.97;;;13.80;58.60;;;;;;5024117;28;21316;-86
2023/03/20 04:49:54;;;;;;;8.23;7.33;;;13.60;59.30;;;;;;5058344;28;20497;-85
2023/03/20 04:52:21;;;;;;;14.40;9.70;;;13.60;59.60;;;;;;5052816;28;20987;-86
2023/03/20 04:54:48;;;;;;;9.13;7.50;;;13.70;59.30;;;;;;5043113;28;20472;-86
2023/03/20 04:57:15;;;;;;;10.27;7.23;;;13.70;59.20;;;;;;5034627;28;20814;-86
2023/03/20 04:59:42;;;;;;;7.07;6.20;;;13.70;59.30;;;;;;5052909;28;20942;-87
2023/03/20 05:02:13;;;;;;;7.37;6.67;;;13.70;59.30;;;;;;5050340;28;20443;-87
2023/03/20 05:04:42;;;;;;;8.93;7.40;;;13.60;59.50;;;;;;5052621;28;20468;-85
2023/03/20 05:07:10;;;;;;;9.47;8.27;;;13.50;59.40;;;;;;5052514;28;20977;-85
2023/03/20 05:09:48;;;;;;;10.93;7.60;;;13.40;59.70;;;;;;5044399;28;20444;-87
2023/03/20 05:12:15;;;;;;;8.57;7.27;;;13.20;59.90;;;;;;5041254;28;20444;-87
2023/03/20 05:14:45;;;;;;;12.93;7.60;;;13.40;59.90;;;;;;5054249;28;20540;-84
2023/03/20 05:17:36;;;;;;;7.93;6.90;;;13.40;59.90;;;;;;5022963;28;20456;-86
2023/03/20 05:20:08;;;;;;;8.53;7.47;;;13.40;60.00;;;;;;5069533;28;20476;-85
2023/03/20 05:22:56;;;;;;;9.60;7.40;;;13.40;59.70;;;;;;5028134;28;20461;-87
2023/03/20 05:26:02;;;;;;;37.70;18.57;;;13.30;60.30;;;;;;4999427;28;20628;-85
2023/03/20 05:28:53;;;;;;;16.50;11.40;;;13.30;60.40;;;;;;4984932;28;20800;-86
2023/03/20 05:31:38;;;;;;;32.40;16.07;;;13.20;60.70;;;;;;5038966;28;20456;-86
2023/03/20 05:34:13;;;;;;;37.77;18.97;;;13.30;60.30;;;;;;5051258;28;20477;-85
2023/03/20 05:37:05;;;;;;;21.17;12.03;;;13.50;60.10;;;;;;5030764;28;20452;-88
2023/03/20 05:39:57;;;;;;;12.23;9.20;;;13.60;59.50;;;;;;5040782;28;20498;-86
2023/03/20 05:42:44;;;;;;;15.30;10.33;;;13.60;59.50;;;;;;5053161;28;20474;-86
2023/03/20 05:45:36;;;;;;;12.90;8.80;;;13.70;59.30;;;;;;5039932;28;20492;-86
2023/03/20 05:48:26;;;;;;;11.17;7.87;;;13.80;59.00;;;;;;5027236;28;20571;-85
2023/03/20 05:51:15;;;;;;;8.03;5.77;;;13.80;58.90;;;;;;5049399;28;20491;-86
2023/03/20 05:53:54;;;;;;;6.67;6.03;;;13.60;58.60;;;;;;5037792;28;20463;-86
2023/03/20 05:56:23;;;;;;;9.70;7.13;;;13.60;59.50;;;;;;5043481;28;20606;-85
2023/03/20 05:59:12;;;;;;;11.70;9.77;;;13.60;59.40;;;;;;5054845;28;20455;-84
2023/03/20 06:01:50;;;;;;;14.07;7.70;;;13.60;59.80;;;;;;5042959;28;20484;-85
2023/03/20 06:04:25;;;;;;;10.13;7.63;;;13.60;60.30;;;;;;5067164;28;20445;-85
2023/03/20 06:07:13;;;;;;;13.10;9.30;;;13.70;60.00;;;;;;5052729;28;20473;-84
2023/03/20 06:09:44;;;;;;;8.50;7.23;;;13.80;59.70;;;;;;5022331;28;20452;-85
2023/03/20 06:12:13;;;;;;;11.30;7.97;;;13.80;59.60;;;;;;5033928;28;20973;-84
2023/03/20 06:14:40;;;;;;;11.00;8.17;;;13.80;59.80;;;;;;5044757;28;20472;-85
2023/03/20 06:17:08;;;;;;;10.70;9.00;;;13.80;60.30;;;;;;5045126;28;20448;-85
2023/03/20 06:19:37;;;;;;;8.80;7.40;;;13.80;60.60;;;;;;5054183;28;20531;-86
2023/03/20 06:22:04;;;;;;;9.47;7.33;;;13.80;60.30;;;;;;5043279;28;20464;-84
2023/03/20 06:24:31;;;;;;;10.10;7.70;;;13.80;60.20;;;;;;5052348;28;20463;-85
2023/03/20 06:27:00;;;;;;;8.33;6.80;;;13.70;60.40;;;;;;5044585;28;20807;-85
2023/03/20 06:29:28;;;;;;;10.00;6.90;;;13.60;60.80;;;;;;5035972;28;20942;-86
2023/03/20 06:32:03;;;;;;;9.03;7.43;;;13.80;60.60;;;;;;5042985;28;20452;-84
2023/03/20 06:34:31;;;;;;;9.97;8.07;;;13.90;60.10;;;;;;5042919;28;20448;-85
2023/03/20 06:36:58;;;;;;;10.57;8.07;;;14.00;60.10;;;;;;5026603;28;20957;-85
2023/03/20 06:39:27;;;;;;;10.20;8.53;;;14.00;60.40;;;;;;5041148;28;20551;-85
2023/03/20 06:41:55;;;;;;;11.50;8.33;;;14.00;60.30;;;;;;5035807;28;22005;-84
2023/03/20 06:44:26;;;;;;;8.70;6.57;;;13.90;61.20;;;;;;5024432;28;20468;-85
2023/03/20 06:47:05;;;;;;;6.80;6.10;;;14.00;61.00;;;;;;5057179;28;20475;-85
2023/03/20 06:49:32;;;;;;;6.23;5.57;;;13.90;60.80;;;;;;5047037;28;20537;-87
2023/03/20 06:51:59;;;;;;;6.83;5.70;;;13.80;60.70;;;;;;5049452;28;20495;-85
2023/03/20 06:54:26;;;;;;;7.53;6.13;;;13.90;60.90;;;;;;5070438;28;20459;-84
2023/03/20 06:56:54;;;;;;;7.53;6.30;;;13.90;60.60;;;;;;5060532;28;20436;-85
2023/03/20 06:59:22;;;;;;;8.83;6.00;;;13.80;60.50;;;;;;5062149;28;20960;-85
2023/03/20 07:01:52;;;;;;;10.07;6.40;;;13.80;60.80;;;;;;5027066;28;20436;-86
2023/03/20 07:04:19;;;;;;;9.10;7.97;;;13.80;60.70;;;;;;5043481;28;20958;-85
2023/03/20 07:06:50;;;;;;;7.70;6.30;;;13.90;60.60;;;;;;5044299;28;20913;-86
2023/03/20 07:09:18;;;;;;;10.50;7.43;;;13.90;60.40;;;;;;5041197;28;20961;-85
2023/03/20 07:11:45;;;;;;;9.90;7.13;;;13.80;60.50;;;;;;5040646;28;20452;-86
2023/03/20 07:14:13;;;;;;;10.40;7.60;;;13.90;60.90;;;;;;5063408;28;20464;-84
2023/03/20 07:16:56;;;;;;;7.60;6.90;;;13.90;61.00;;;;;;5049182;28;20508;-85
2023/03/20 07:19:23;;;;;;;10.50;8.27;;;13.90;61.00;;;;;;5046000;28;20527;-85
2023/03/20 07:22:01;;;;;;;9.40;8.13;;;13.90;61.70;;;;;;5029062;28;20447;-85
2023/03/20 07:24:31;;;;;;;11.03;7.40;;;13.90;61.90;;;;;;5047979;28;20845;-86
2023/03/20 07:26:58;;;;;;;11.03;7.43;;;13.90;62.10;;;;;;5058498;28;20981;-85
2023/03/20 07:29:26;;;;;;;10.13;7.30;;;14.00;61.90;;;;;;5060905;28;20458;-85
2023/03/20 07:31:53;;;;;;;14.73;11.30;;;14.00;62.10;;;;;;5042582;28;20853;-85
2023/03/20 07:34:29;;;;;;;16.73;10.20;;;13.90;62.50;;;;;;5043589;28;20444;-86
2023/03/20 07:36:57;;;;;;;15.53;10.83;;;13.90;62.20;;;;;;5057969;28;20444;-84
2023/03/20 07:39:24;;;;;;;9.67;8.13;;;14.00;62.30;;;;;;5038586;28;20789;-87
2023/03/20 07:42:01;;;;;;;14.43;11.33;;;14.10;61.90;;;;;;5047824;28;20447;-86
2023/03/20 07:44:44;;;;;;;11.90;9.00;;;14.20;61.70;;;;;;5030808;28;20460;-85
2023/03/20 07:47:12;;;;;;;15.43;9.37;;;14.20;61.10;;;;;;5067817;28;20981;-85
2023/03/20 07:49:40;;;;;;;8.90;7.70;;;14.30;61.00;;;;;;5047133;28;20459;-85
2023/03/20 07:52:08;;;;;;;12.20;7.87;;;14.60;60.90;;;;;;5047281;28;20448;-84
2023/03/20 07:54:35;;;;;;;8.97;7.27;;;14.40;61.20;;;;;;5048635;28;20849;-85
2023/03/20 07:57:04;;;;;;;11.57;7.93;;;14.50;61.00;;;;;;5056898;28;20448;-86
2023/03/20 07:59:31;;;;;;;12.57;8.67;;;14.50;61.00;;;;;;5072330;28;20542;-85
2023/03/20 08:01:58;;;;;;;10.23;7.77;;;14.70;60.40;;;;;;5062785;28;20457;-85
2023/03/20 08:04:25;;;;;;;12.73;7.10;;;14.90;60.40;;;;;;5068995;28;20502;-84
2023/03/20 08:06:53;;;;;;;9.53;6.70;;;15.00;60.00;;;;;;5057543;28;20479;-86
2023/03/20 08:09:20;;;;;;;9.00;6.80;;;15.10;59.80;;;;;;5060971;28;20440;-86
2023/03/20 08:11:47;;;;;;;9.67;7.20;;;15.10;59.70;;;;;;5043482;28;20456;-84
2023/03/20 08:14:14;;;;;;;8.50;6.77;;;15.00;59.60;;;;;;5060704;28;20472;-85
2023/03/20 08:16:41;;;;;;;8.30;6.67;;;14.90;59.90;;;;;;5057731;28;20441;-86
2023/03/20 08:19:08;;;;;;;8.33;6.60;;;15.00;59.70;;;;;;5040600;28;20953;-85
2023/03/20 08:21:35;;;;;;;8.80;7.10;;;15.00;59.60;;;;;;5047437;28;20897;-87
2023/03/20 08:24:04;;;;;;;8.77;6.53;;;15.00;59.60;;;;;;5051029;28;20444;-84
2023/03/20 08:26:31;;;;;;;8.17;5.90;;;15.00;59.70;;;;;;5023330;28;20522;-86
2023/03/20 08:28:58;;;;;;;7.53;6.60;;;15.20;59.60;;;;;;5054753;28;20448;-85
2023/03/20 08:31:25;;;;;;;10.93;6.70;;;15.30;59.50;;;;;;5061386;28;20511;-85
2023/03/20 08:33:52;;;;;;;9.93;6.57;;;15.40;59.20;;;;;;5064797;28;20444;-85
2023/03/20 08:36:20;;;;;;;13.27;8.13;;;15.40;59.10;;;;;;5024951;28;20468;-85
2023/03/20 08:38:48;;;;;;;10.63;7.30;;;15.40;59.20;;;;;;5058571;28;20957;-86
2023/03/20 08:41:16;;;;;;;9.57;6.87;;;15.50;59.20;;;;;;5043995;28;20497;-86
2023/03/20 08:43:43;;;;;;;12.33;7.87;;;15.60;59.10;;;;;;5063222;28;20448;-85
2023/03/20 08:46:10;;;;;;;12.63;7.97;;;15.70;59.10;;;;;;5064757;28;20486;-85
2023/03/20 08:48:37;;;;;;;13.13;9.10;;;15.60;58.80;;;;;;5070915;28;20475;-86
2023/03/20 08:51:05;;;;;;;14.47;9.17;;;15.60;58.90;;;;;;5039864;28;20464;-85
2023/03/20 08:53:31;;;;;;;12.73;9.30;;;15.70;58.90;;;;;;5055564;28;20463;-85
2023/03/20 08:55:58;;;;;;;11.60;8.80;;;15.50;60.00;;;;;;5044836;28;20467;-85
2023/03/20 08:58:27;;;;;;;18.63;9.80;;;15.50;59.10;;;;;;5058795;28;20452;-82
2023/03/20 09:00:54;;;;;;;12.83;9.60;;;15.50;59.20;;;;;;5069813;28;20437;-85
2023/03/20 09:03:21;;;;;;;17.97;11.53;;;15.60;59.00;;;;;;5053351;28;20891;-86
2023/03/20 09:05:51;;;;;;;13.00;9.63;;;15.60;59.00;;;;;;5023417;28;20467;-85
2023/03/20 09:08:18;;;;;;;13.67;8.80;;;15.70;58.70;;;;;;5041403;28;20467;-84
2023/03/20 09:10:47;;;;;;;17.83;9.60;;;15.80;58.90;;;;;;5051534;28;20460;-84
2023/03/20 09:13:14;;;;;;;15.80;9.47;;;15.90;59.00;;;;;;5044337;28;20582;-84
2023/03/20 09:15:42;;;;;;;20.63;10.53;;;15.80;58.50;;;;;;5040856;28;20614;-84
2023/03/20 09:18:10;;;;;;;13.37;8.87;;;15.80;58.70;;;;;;5062396;28;20964;-84
2023/03/20 09:20:37;;;;;;;13.80;9.90;;;15.70;58.70;;;;;;5037668;28;20471;-85
2023/03/20 09:23:04;;;;;;;11.80;9.03;;;15.60;58.60;;;;;;5064228;28;20459;-85
2023/03/20 09:25:31;;;;;;;14.57;9.60;;;15.70;59.00;;;;;;5034313;28;20530;-84
2023/03/20 09:27:58;;;;;;;14.73;10.37;;;15.70;59.00;;;;;;5041879;28;20467;-84
2023/03/20 09:30:25;;;;;;;15.20;9.37;;;15.70;59.00;;;;;;5057465;28;21071;-85
2023/03/20 09:32:54;;;;;;;14.43;8.50;;;15.80;59.10;;;;;;5046374;28;20505;-84
2023/03/20 09:35:21;;;;;;;12.83;8.40;;;15.80;58.90;;;;;;5054209;28;21028;-84
2023/03/20 09:37:48;;;;;;;11.70;8.50;;;15.80;58.70;;;;;;5044384;28;20482;-85
2023/03/20 09:40:24;;;;;;;15.27;9.60;;;15.70;58.50;;;;;;5026027;28;20448;-85
2023/03/20 09:42:57;;;;;;;17.93;11.07;;;15.60;59.10;;;;;;5038290;28;20532;-84
2023/03/20 09:45:37;;;;;;;14.23;8.50;;;15.70;58.80;;;;;;5051565;28;20475;-84
2023/03/20 09:48:13;;;;;;;15.97;9.67;;;15.70;58.80;;;;;;5039064;28;20475;-84
2023/03/20 09:50:46;;;;;;;13.27;8.37;;;15.60;59.00;;;;;;5043435;28;20457;-85
2023/03/20 09:53:20;;;;;;;16.17;9.10;;;15.60;58.90;;;;;;5069066;28;20443;-84
2023/03/20 09:55:48;;;;;;;20.23;11.70;;;15.60;59.00;;;;;;5054752;28;20478;-84
2023/03/20 09:58:20;;;;;;;18.37;11.13;;;15.30;59.70;;;;;;5050879;28;20445;-84
2023/03/20 10:00:48;;;;;;;22.57;12.13;;;15.20;60.60;;;;;;5068236;28;20466;-83
2023/03/20 10:03:24;;;;;;;22.73;11.43;;;15.00;60.70;;;;;;5019857;28;20452;-85
2023/03/20 10:05:58;;;;;;;22.27;11.37;;;15.00;60.90;;;;;;5028510;28;21054;-85
2023/03/20 10:08:29;;;;;;;23.70;12.80;;;15.00;61.20;;;;;;5025579;28;20491;-85
2023/03/20 10:11:06;;;;;;;20.27;11.63;;;15.20;61.30;;;;;;5070403;28;20455;-86
2023/03/20 10:13:55;;;;;;;20.40;11.50;;;15.40;60.60;;;;;;5042698;28;20455;-85
2023/03/20 10:16:34;;;;;;;14.90;9.10;;;15.70;60.30;;;;;;5037959;28;20850;-85
2023/03/20 10:19:12;;;;;;;22.10;11.47;;;15.90;59.40;;;;;;5030329;28;20454;-84
2023/03/20 10:21:43;;;;;;;14.93;9.77;;;15.80;58.90;;;;;;5069095;28;20444;-84
2023/03/20 10:24:18;;;;;;;16.57;10.20;;;15.90;59.00;;;;;;5038147;28;20456;-85
2023/03/20 10:26:47;;;;;;;19.50;11.20;;;15.70;59.00;;;;;;5053171;28;20881;-84
2023/03/20 10:29:24;;;;;;;15.73;9.53;;;15.80;59.30;;;;;;5055076;28;20523;-84
2023/03/20 10:31:57;;;;;;;18.80;10.77;;;15.90;59.50;;;;;;5061044;28;20957;-84
2023/03/20 10:34:38;;;;;;;18.67;9.00;;;16.00;58.60;;;;;;5065913;28;20456;-85
2023/03/20 10:37:25;;;;;;;15.60;10.00;;;15.80;58.70;;;;;;5056306;28;20449;-85
2023/03/20 10:40:04;;;;;;;17.73;8.80;;;15.50;59.70;;;;;;5041538;28;20448;-86
2023/03/20 10:42:37;;;;;;;17.40;9.27;;;15.50;60.00;;;;;;5020935;28;20973;-86
2023/03/20 10:45:11;;;;;;;14.67;8.80;;;15.70;59.70;;;;;;5038133;28;20487;-85
2023/03/20 10:47:42;;;;;;;15.67;9.07;;;15.80;59.70;;;;;;5038346;28;20947;-84
2023/03/20 10:50:16;;;;;;;15.07;8.30;;;15.80;58.80;;;;;;5023463;28;20444;-85
2023/03/20 10:52:47;;;;;;;15.70;9.73;;;15.80;59.40;;;;;;5055130;28;20536;-85
2023/03/20 10:55:18;;;;;;;19.33;10.67;;;15.80;59.40;;;;;;5049573;28;20467;-85
2023/03/20 10:57:50;;;;;;;18.43;11.13;;;15.90;59.00;;;;;;5028153;28;20526;-85
2023/03/20 11:00:21;;;;;;;16.67;10.20;;;16.00;58.60;;;;;;5054073;28;20961;-86
2023/03/20 11:02:48;;;;;;;14.23;8.93;;;15.90;58.80;;;;;;5025734;28;20460;-85
2023/03/20 11:05:24;;;;;;;15.50;9.90;;;15.80;59.00;;;;;;5041601;28;20491;-84
2023/03/20 11:08:00;;;;;;;13.17;9.10;;;15.90;59.00;;;;;;5055751;28;20504;-85
2023/03/20 11:10:28;;;;;;;17.30;9.07;;;15.90;59.00;;;;;;5025321;28;20766;-85
2023/03/20 11:12:55;;;;;;;18.13;8.40;;;16.00;59.00;;;;;;5052605;28;20445;-86
2023/03/20 11:15:25;;;;;;;14.33;7.57;;;15.80;58.90;;;;;;5049094;28;20472;-84
2023/03/20 11:17:54;;;;;;;12.50;8.13;;;15.90;59.00;;;;;;5025281;28;20848;-85
2023/03/20 11:20:22;;;;;;;14.10;8.97;;;15.90;59.10;;;;;;5052672;28;20879;-85
2023/03/20 11:22:50;;;;;;;13.57;7.93;;;15.90;58.90;;;;;;5044300;28;20989;-85
2023/03/20 11:25:28;;;;;;;12.60;8.00;;;16.00;58.80;;;;;;5058942;28;20474;-84
2023/03/20 11:27:55;;;;;;;13.53;8.90;;;16.00;58.30;;;;;;5041378;28;20575;-86
2023/03/20 11:30:23;;;;;;;14.83;8.30;;;16.20;58.20;;;;;;5051533;28;20456;-86
2023/03/20 11:32:54;;;;;;;12.50;7.87;;;16.30;58.50;;;;;;5053570;28;20806;-84
2023/03/20 11:35:31;;;;;;;12.73;8.00;;;16.50;57.90;;;;;;5039363;28;20999;-84
2023/03/20 11:38:12;;;;;;;9.80;7.20;;;16.60;57.40;;;;;;5057807;28;20829;-86
2023/03/20 11:40:39;;;;;;;10.83;6.80;;;16.40;58.00;;;;;;5039042;28;20456;-85
2023/03/20 11:43:12;;;;;;;12.23;7.40;;;16.50;57.20;;;;;;5059532;28;20443;-84
2023/03/20 11:45:41;;;;;;;15.43;6.97;;;16.40;57.20;;;;;;5059521;28;20469;-84
2023/03/20 11:48:17;;;;;;;11.37;6.70;;;16.40;57.30;;;;;;5063634;28;20492;-83
2023/03/20 11:50:47;;;;;;;12.73;7.90;;;16.30;58.20;;;;;;5031409;28;20919;-85
2023/03/20 11:53:22;;;;;;;6.87;5.57;;;16.20;58.00;;;;;;5042167;28;20975;-84
2023/03/20 11:56:02;;;;;;;6.90;5.43;;;15.90;58.40;;;;;;5068095;28;20463;-84
2023/03/20 11:58:29;;;;;;;5.90;4.83;;;15.90;58.90;;;;;;5061469;28;20989;-84
2023/03/20 12:00:57;;;;;;;10.80;6.57;;;16.10;58.90;;;;;;5041424;28;20503;-85
2023/03/20 12:03:39;;;;;;;8.63;5.30;;;16.20;58.20;;;;;;5063216;28;20973;-85
2023/03/20 12:06:13;;;;;;;8.90;5.83;;;16.30;58.10;;;;;;5046983;28;20547;-84
2023/03/20 12:08:43;;;;;;;9.10;5.97;;;16.10;57.70;;;;;;5053596;28;20989;-84
2023/03/20 12:11:21;;;;;;;7.00;5.27;;;15.80;58.70;;;;;;5072232;28;20444;-85
2023/03/20 12:13:50;;;;;;;7.40;5.20;;;15.70;58.60;;;;;;5056241;28;20548;-85
2023/03/20 12:16:23;;;;;;;6.63;4.63;;;15.70;58.40;;;;;;5054789;28;20471;-85
2023/03/20 12:18:54;;;;;;;7.33;4.40;;;15.80;58.40;;;;;;5030145;28;20498;-84
2023/03/20 12:21:28;;;;;;;7.10;4.70;;;15.70;58.50;;;;;;5070201;28;20445;-83
2023/03/20 12:24:01;;;;;;;7.63;5.17;;;15.80;58.80;;;;;;5056754;28;20968;-86
2023/03/20 12:26:33;;;;;;;9.30;4.77;;;16.10;58.40;;;;;;5060210;28;20995;-84
2023/03/20 12:29:05;;;;;;;8.00;4.87;;;16.30;57.50;;;;;;5031444;28;21346;-85
2023/03/20 12:31:39;;;;;;;7.17;4.50;;;16.40;57.20;;;;;;5061992;28;20447;-86
2023/03/20 12:34:12;;;;;;;6.83;4.83;;;16.50;57.20;;;;;;5064219;28;20478;-85
2023/03/20 12:36:43;;;;;;;7.47;5.50;;;16.50;56.60;;;;;;5046371;28;20511;-84
2023/03/20 12:39:14;;;;;;;8.20;5.70;;;16.60;56.90;;;;;;5045758;28;20441;-85
2023/03/20 12:41:52;;;;;;;6.90;4.67;;;16.80;55.90;;;;;;5060611;28;20440;-84
2023/03/20 12:44:29;;;;;;;6.93;4.57;;;16.80;55.70;;;;;;5037559;28;20459;-84
2023/03/20 12:47:08;;;;;;;8.57;5.17;;;16.80;55.50;;;;;;5040128;28;20441;-85
2023/03/20 12:49:45;;;;;;;7.00;4.83;;;16.90;55.20;;;;;;5066700;28;20433;-84
2023/03/20 12:52:23;;;;;;;6.27;4.43;;;17.20;55.10;;;;;;5063015;28;20475;-85
2023/03/20 12:55:12;;;;;;;8.07;4.87;;;17.70;54.70;;;;;;5058624;28;20468;-84
2023/03/20 12:57:49;;;;;;;6.53;4.70;;;17.70;53.00;;;;;;5038717;28;20454;-86
2023/03/20 13:00:24;;;;;;;7.63;4.57;;;17.50;52.70;;;;;;5028741;28;20980;-84
2023/03/20 13:03:05;;;;;;;7.33;4.90;;;17.30;52.90;;;;;;5051924;28;20445;-85
2023/03/20 13:05:42;;;;;;;8.87;6.23;;;17.30;53.00;;;;;;5067832;28;20486;-84
2023/03/20 13:08:32;;;;;;;6.30;4.40;;;17.20;52.90;;;;;;5055409;28;20500;-85